Observation data for Goodlett on 07/06/2020      Previous  Date       Current Mesonet Observations  Soil Data  Daily Summary Page  Observations in Plain Language
KGDS 060500Z 12007KT 24/19 A2992 RMK A01 T02360192  RH  081%=      5-min Rain = 0
KGDS 060505Z 12008KT 24/19 A2992 RMK A01 T02350193  RH  082%=      5-min Rain = 0
KGDS 060510Z 12007KT 24/19 A2992 RMK A01 T02350192  RH  082%=      5-min Rain = 0
KGDS 060515Z 11006KT 24/19 A2992 RMK A01 T02350193  RH  082%=      5-min Rain = 0
KGDS 060520Z 10006KT 23/19 A2992 RMK A01 T02340194  RH  083%=      5-min Rain = 0
KGDS 060525Z 09006KT 23/20 A2992 RMK A01 T02330195  RH  084%=      5-min Rain = 0
KGDS 060530Z 10005KT 23/20 A2992 RMK A01 T02320195  RH  084%=      5-min Rain = 0
KGDS 060535Z 10004KT 23/20 A2993 RMK A01 T02320195  RH  084%=      5-min Rain = 0
KGDS 060540Z 08005KT 23/20 A2993 RMK A01 T02320195  RH  085%=      5-min Rain = 0
KGDS 060545Z 06005KT 23/20 A2993 RMK A01 T02330196  RH  084%=      5-min Rain = 0
KGDS 060550Z 06005KT 23/20 A2993 RMK A01 T02330195  RH  084%=      5-min Rain = 0
KGDS 060555Z 04003KT 23/20 A2993 RMK A01 T02330195  RH  084%=      5-min Rain = 0
KGDS 060600Z 03003KT 23/20 A2994 RMK A01 T02330196  RH  084%=      5-min Rain = 0
KGDS 060605Z 04004KT 23/20 A2994 RMK A01 T02320196  RH  085%=      5-min Rain = 0
KGDS 060610Z 03005KT 23/20 A2994 RMK A01 T02310195  RH  085%=      5-min Rain = 0
KGDS 060615Z 03005KT 23/20 A2994 RMK A01 T02300196  RH  086%=      5-min Rain = 0
KGDS 060620Z 04006KT 23/20 A2994 RMK A01 T02300196  RH  086%=      5-min Rain = 0
KGDS 060625Z 04006KT 23/20 A2994 RMK A01 T02310197  RH  086%=      5-min Rain = 0
KGDS 060630Z 04007KT 23/20 A2993 RMK A01 T02300197  RH  086%=      5-min Rain = 0
KGDS 060635Z 06008KT 23/20 A2993 RMK A01 T02290197  RH  087%=      5-min Rain = 0
KGDS 060640Z 06008KT 23/20 A2993 RMK A01 T02300198  RH  087%=      5-min Rain = 0
KGDS 060645Z 07006KT 23/20 A2993 RMK A01 T02290198  RH  087%=      5-min Rain = 0
KGDS 060650Z 07006KT 23/20 A2993 RMK A01 T02300198  RH  087%=      5-min Rain = 0
KGDS 060655Z 09005KT 23/20 A2992 RMK A01 T02300199  RH  087%=      5-min Rain = 0
KGDS 060700Z 08004KT 23/20 A2992 RMK A01 T02300199  RH  088%=      5-min Rain = 0
KGDS 060705Z 07004KT 23/20 A2992 RMK A01 T02300199  RH  087%=      5-min Rain = 0
KGDS 060710Z 11005KT 23/20 A2992 RMK A01 T02300199  RH  087%=      5-min Rain = 0
KGDS 060715Z 10003KT 23/20 A2992 RMK A01 T02300199  RH  088%=      5-min Rain = 0
KGDS 060720Z 11003KT 23/20 A2992 RMK A01 T02280201  RH  090%=      5-min Rain = 0
KGDS 060725Z 05004KT 23/20 A2991 RMK A01 T02280203  RH  091%=      5-min Rain = 0.01
KGDS 060730Z 11006G11KT 23/20 A2991 RMK A01 T02270203  RH  091%=      5-min Rain = 0
KGDS 060735Z 13009KT 23/19 A2991 RMK A01 T02330193  RH  083%=      5-min Rain = 0
KGDS 060740Z 15006KT 24/20 A2991 RMK A01 T02350195  RH  083%=      5-min Rain = 0
KGDS 060745Z 15005KT 23/20 A2991 RMK A01 T02320198  RH  086%=      5-min Rain = 0
KGDS 060750Z 16004KT 23/20 A2991 RMK A01 T02310198  RH  087%=      5-min Rain = 0
KGDS 060755Z 16003KT 23/20 A2991 RMK A01 T02310200  RH  088%=      5-min Rain = 0
KGDS 060800Z 17003KT 23/20 A2991 RMK A01 T02290202  RH  090%=      5-min Rain = 0
KGDS 060805Z 17002KT 23/20 A2991 RMK A01 T02280201  RH  090%=      5-min Rain = 0
KGDS 060810Z 36001KT 23/20 A2991 RMK A01 T02290201  RH  089%=      5-min Rain = 0
KGDS 060815Z 02001KT 23/20 A2991 RMK A01 T02300202  RH  089%=      5-min Rain = 0
KGDS 060820Z 01001KT 23/20 A2991 RMK A01 T02300203  RH  090%=      5-min Rain = 0
KGDS 060825Z 03004KT 23/20 A2992 RMK A01 T02290203  RH  091%=      5-min Rain = 0
KGDS 060830Z 03008KT 23/20 A2992 RMK A01 T02260202  RH  092%=      5-min Rain = 0
KGDS 060835Z 02008KT 22/20 A2992 RMK A01 T02240203  RH  093%=      5-min Rain = 0
KGDS 060840Z 03007KT 22/20 A2992 RMK A01 T02240204  RH  094%=      5-min Rain = 0
KGDS 060845Z 02006KT 22/20 A2992 RMK A01 T02230204  RH  094%=      5-min Rain = 0
KGDS 060850Z 01005KT 22/20 A2993 RMK A01 T02230204  RH  094%=      5-min Rain = 0
KGDS 060855Z 02005KT 22/20 A2993 RMK A01 T02230204  RH  094%=      5-min Rain = 0
KGDS 060900Z 02004KT 22/20 A2993 RMK A01 T02230203  RH  094%=      5-min Rain = 0
KGDS 060905Z 01003KT 22/20 A2993 RMK A01 T02220203  RH  094%=      5-min Rain = 0
KGDS 060910Z 00004KT 22/20 A2994 RMK A01 T02220202  RH  094%=      5-min Rain = 0
KGDS 060915Z 36004KT 22/20 A2994 RMK A01 T02210202  RH  094%=      5-min Rain = 0
KGDS 060920Z 01004KT 22/20 A2994 RMK A01 T02210202  RH  094%=      5-min Rain = 0
KGDS 060925Z 01005KT 22/20 A2993 RMK A01 T02210202  RH  094%=      5-min Rain = 0
KGDS 060930Z 01005KT 22/20 A2993 RMK A01 T02210202  RH  095%=      5-min Rain = 0
KGDS 060935Z 02004KT 22/20 A2993 RMK A01 T02200202  RH  095%=      5-min Rain = 0
KGDS 060940Z 02004KT 22/20 A2994 RMK A01 T02200202  RH  095%=      5-min Rain = 0
KGDS 060945Z 01005KT 22/20 A2994 RMK A01 T02200202  RH  095%=      5-min Rain = 0
KGDS 060950Z 00004KT 22/20 A2994 RMK A01 T02200202  RH  095%=      5-min Rain = 0
KGDS 060955Z 01003KT 22/20 A2994 RMK A01 T02200202  RH  095%=      5-min Rain = 0
KGDS 061000Z 01001KT 22/20 A2994 RMK A01 T02200202  RH  095%=      5-min Rain = 0
KGDS 061005Z 00000KT 22/20 A2995 RMK A01 T02200202  RH  094%=      5-min Rain = 0
KGDS 061010Z 00001KT 22/20 A2995 RMK A01 T02210202  RH  094%=      5-min Rain = 0
KGDS 061015Z 35002KT 22/20 A2995 RMK A01 T02220202  RH  094%=      5-min Rain = 0
KGDS 061020Z 23004G9KT 22/20 A2995 RMK A01 T02230203  RH  094%=      5-min Rain = 0
KGDS 061025Z 22005KT 22/20 A2996 RMK A01 T02240203  RH  094%=      5-min Rain = 0
KGDS 061030Z 23003KT 22/20 A2995 RMK A01 T02230203  RH  094%=      5-min Rain = 0
KGDS 061035Z 25003KT 22/20 A2995 RMK A01 T02230203  RH  094%=      5-min Rain = 0
KGDS 061040Z 24004KT 22/20 A2995 RMK A01 T02230203  RH  094%=      5-min Rain = 0
KGDS 061045Z 28003KT 22/20 A2995 RMK A01 T02220204  RH  095%=      5-min Rain = 0
KGDS 061050Z 27003KT 22/20 A2995 RMK A01 T02220203  RH  095%=      5-min Rain = 0
KGDS 061055Z 30004KT 22/20 A2995 RMK A01 T02210203  RH  095%=      5-min Rain = 0
KGDS 061100Z 30004KT 22/20 A2996 RMK A01 T02210203  RH  095%=      5-min Rain = 0
KGDS 061105Z 32005KT 22/20 A2995 RMK A01 T02210203  RH  095%=      5-min Rain = 0
KGDS 061110Z 29004KT 22/20 A2995 RMK A01 T02210203  RH  095%=      5-min Rain = 0
KGDS 061115Z 30004KT 22/20 A2995 RMK A01 T02210203  RH  095%=      5-min Rain = 0
KGDS 061120Z 32004KT 22/20 A2995 RMK A01 T02210203  RH  095%=      5-min Rain = 0
KGDS 061125Z 31004KT 22/20 A2995 RMK A01 T02200202  RH  095%=      5-min Rain = 0
KGDS 061130Z 33004KT 22/20 A2995 RMK A01 T02210203  RH  095%=      5-min Rain = 0
KGDS 061135Z 32003KT 22/20 A2995 RMK A01 T02210203  RH  095%=      5-min Rain = 0
KGDS 061140Z 31003KT 22/20 A2996 RMK A01 T02210203  RH  095%=      5-min Rain = 0
KGDS 061145Z 32003KT 22/20 A2995 RMK A01 T02220203  RH  094%=      5-min Rain = 0
KGDS 061150Z 32002KT 22/20 A2996 RMK A01 T02230203  RH  094%=      5-min Rain = 0
KGDS 061155Z 35003KT 22/20 A2996 RMK A01 T02230204  RH  094%=      5-min Rain = 0
KGDS 061200Z 35004KT 22/20 A2996 RMK A01 T02230204  RH  094%=      5-min Rain = 0
KGDS 061205Z 36004KT 22/20 A2996 RMK A01 T02220204  RH  095%=      5-min Rain = 0
KGDS 061210Z 00004KT 22/20 A2995 RMK A01 T02220204  RH  095%=      5-min Rain = 0
KGDS 061215Z 01005KT 22/21 A2995 RMK A01 T02230205  RH  095%=      5-min Rain = 0
KGDS 061220Z 00005KT 22/21 A2995 RMK A01 T02230205  RH  095%=      5-min Rain = 0
KGDS 061225Z 00004KT 22/21 A2995 RMK A01 T02240205  RH  095%=      5-min Rain = 0
KGDS 061230Z 36005KT 23/21 A2995 RMK A01 T02250206  RH  094%=      5-min Rain = 0
KGDS 061235Z 36006KT 23/21 A2994 RMK A01 T02260206  RH  094%=      5-min Rain = 0
KGDS 061240Z 01006KT 23/21 A2994 RMK A01 T02270206  RH  093%=      5-min Rain = 0
KGDS 061245Z 01007KT 23/21 A2994 RMK A01 T02280206  RH  093%=      5-min Rain = 0
KGDS 061250Z 01007KT 23/21 A2994 RMK A01 T02280205  RH  092%=      5-min Rain = 0
KGDS 061255Z 02005KT 23/21 A2994 RMK A01 T02280205  RH  092%=      5-min Rain = 0
KGDS 061300Z 01005KT 23/20 A2995 RMK A01 T02300204  RH  091%=      5-min Rain = 0
KGDS 061305Z 01005KT 23/21 A2994 RMK A01 T02320205  RH  090%=      5-min Rain = 0
KGDS 061310Z 01007KT 23/21 A2994 RMK A01 T02340205  RH  089%=      5-min Rain = 0
KGDS 061315Z 00006KT 24/21 A2994 RMK A01 T02390206  RH  087%=      5-min Rain = 0
KGDS 061320Z 36009KT 24/20 A2994 RMK A01 T02420204  RH  085%=      5-min Rain = 0
KGDS 061325Z 00008KT 24/20 A2994 RMK A01 T02440204  RH  083%=      5-min Rain = 0
KGDS 061330Z 00010KT 25/20 A2995 RMK A01 T02460201  RH  081%=      5-min Rain = 0
KGDS 061335Z 00009KT 25/20 A2995 RMK A01 T02480202  RH  080%=      5-min Rain = 0
KGDS 061340Z 01010KT 25/20 A2995 RMK A01 T02480202  RH  080%=      5-min Rain = 0
KGDS 061345Z 35008KT 25/20 A2995 RMK A01 T02490201  RH  079%=      5-min Rain = 0
KGDS 061350Z 36009KT 25/20 A2995 RMK A01 T02530202  RH  078%=      5-min Rain = 0
KGDS 061355Z 36009KT 26/20 A2995 RMK A01 T02560201  RH  076%=      5-min Rain = 0
KGDS 061400Z 35009KT 26/20 A2995 RMK A01 T02570201  RH  075%=      5-min Rain = 0
KGDS 061405Z 34008KT 26/20 A2995 RMK A01 T02600202  RH  075%=      5-min Rain = 0
KGDS 061410Z 35009KT 26/20 A2995 RMK A01 T02630198  RH  072%=      5-min Rain = 0
KGDS 061415Z 35009KT 26/20 A2995 RMK A01 T02640197  RH  071%=      5-min Rain = 0
KGDS 061420Z 35008KT 27/20 A2995 RMK A01 T02660195  RH  069%=      5-min Rain = 0
KGDS 061425Z 35008KT 27/19 A2995 RMK A01 T02700194  RH  067%=      5-min Rain = 0
KGDS 061430Z 35007KT 27/19 A2996 RMK A01 T02710194  RH  066%=      5-min Rain = 0
KGDS 061435Z 35007KT 28/20 A2996 RMK A01 T02750197  RH  066%=      5-min Rain = 0
KGDS 061440Z 01008KT 28/19 A2996 RMK A01 T02770191  RH  063%=      5-min Rain = 0
KGDS 061445Z 00006KT 28/19 A2996 RMK A01 T02780192  RH  063%=      5-min Rain = 0
KGDS 061450Z 35008KT 28/19 A2996 RMK A01 T02780194  RH  064%=      5-min Rain = 0
KGDS 061455Z 01009KT 28/20 A2997 RMK A01 T02790196  RH  064%=      5-min Rain = 0
KGDS 061500Z 01008KT 28/20 A2997 RMK A01 T02790195  RH  064%=      5-min Rain = 0
KGDS 061505Z 01007KT 28/20 A2997 RMK A01 T02810195  RH  063%=      5-min Rain = 0
KGDS 061510Z 03007KT 28/19 A2997 RMK A01 T02800189  RH  061%=      5-min Rain = 0
KGDS 061515Z 00006KT 28/19 A2997 RMK A01 T02800190  RH  062%=      5-min Rain = 0
KGDS 061520Z 01006KT 28/19 A2997 RMK A01 T02810191  RH  061%=      5-min Rain = 0
KGDS 061525Z 03005KT 29/19 A2997 RMK A01 T02860192  RH  060%=      5-min Rain = 0
KGDS 061530Z 02004G9KT 28/19 A2997 RMK A01 T02840186  RH  058%=      5-min Rain = 0
KGDS 061535Z 35005KT 29/19 A2997 RMK A01 T02880190  RH  059%=      5-min Rain = 0
KGDS 061540Z 36005KT 29/19 A2997 RMK A01 T02920189  RH  057%=      5-min Rain = 0
KGDS 061545Z 35005G10KT 29/19 A2997 RMK A01 T02930189  RH  057%=      5-min Rain = 0
KGDS 061550Z 03006KT 30/19 A2997 RMK A01 T02970193  RH  057%=      5-min Rain = 0
KGDS 061555Z 02006KT 29/19 A2997 RMK A01 T02920191  RH  057%=      5-min Rain = 0
KGDS 061600Z 02002G7KT 30/19 A2997 RMK A01 T02950190  RH  056%=      5-min Rain = 0
KGDS 061605Z 06005KT 29/19 A2997 RMK A01 T02940191  RH  057%=      5-min Rain = 0
KGDS 061610Z 02005G10KT 30/19 A2997 RMK A01 T03000193  RH  056%=      5-min Rain = 0
KGDS 061615Z 04006KT 30/19 A2997 RMK A01 T03000192  RH  055%=      5-min Rain = 0
KGDS 061620Z 07007KT 30/19 A2997 RMK A01 T02960191  RH  056%=      5-min Rain = 0
KGDS 061625Z 08006KT 30/19 A2997 RMK A01 T02980192  RH  056%=      5-min Rain = 0
KGDS 061630Z 05007KT 30/19 A2997 RMK A01 T02980194  RH  057%=      5-min Rain = 0
KGDS 061635Z 04005G11KT 30/19 A2997 RMK A01 T02990194  RH  056%=      5-min Rain = 0
KGDS 061640Z 05008G13KT 31/20 A2997 RMK A01 T03050195  RH  055%=      5-min Rain = 0
KGDS 061645Z 08005G10KT 30/19 A2997 RMK A01 T03000193  RH  056%=      5-min Rain = 0
KGDS 061650Z 07006KT 31/19 A2997 RMK A01 T03060194  RH  054%=      5-min Rain = 0
KGDS 061655Z 08006KT 31/19 A2997 RMK A01 T03050192  RH  054%=      5-min Rain = 0
KGDS 061700Z 04008KT 31/19 A2997 RMK A01 T03060190  RH  053%=      5-min Rain = 0
KGDS 061705Z 03006KT 31/19 A2997 RMK A01 T03080189  RH  052%=      5-min Rain = 0
KGDS 061710Z 05010KT 31/19 A2997 RMK A01 T03130187  RH  050%=      5-min Rain = 0
KGDS 061715Z 03008KT 31/19 A2997 RMK A01 T03100187  RH  051%=      5-min Rain = 0
KGDS 061720Z 05009G16KT 32/19 A2997 RMK A01 T03160191  RH  050%=      5-min Rain = 0
KGDS 061725Z 06008G13KT 31/19 A2997 RMK A01 T03110189  RH  051%=      5-min Rain = 0
KGDS 061730Z 06007G12KT 31/19 A2998 RMK A01 T03110186  RH  050%=      5-min Rain = 0
KGDS 061735Z 05010KT 32/18 A2997 RMK A01 T03180180  RH  046%=      5-min Rain = 0
KGDS 061740Z 05008G14KT 32/18 A2997 RMK A01 T03150183  RH  048%=      5-min Rain = 0
KGDS 061745Z 04006KT 31/18 A2997 RMK A01 T03110182  RH  049%=      5-min Rain = 0
KGDS 061750Z 02008G13KT 32/18 A2997 RMK A01 T03190183  RH  047%=      5-min Rain = 0
KGDS 061755Z 02007KT 32/18 A2997 RMK A01 T03160181  RH  047%=      5-min Rain = 0
KGDS 061800Z 03007G16KT 32/18 A2997 RMK A01 T03190181  RH  046%=      5-min Rain = 0
KGDS 061805Z 04005G12KT 32/18 A2997 RMK A01 T03180181  RH  047%=      5-min Rain = 0
KGDS 061810Z 03007G13KT 32/18 A2997 RMK A01 T03190183  RH  047%=      5-min Rain = 0
KGDS 061815Z 07010G15KT 33/18 A2996 RMK A01 T03270184  RH  045%=      5-min Rain = 0
KGDS 061820Z 04007KT 33/18 A2996 RMK A01 T03280182  RH  044%=      5-min Rain = 0
KGDS 061825Z 02008KT 33/18 A2996 RMK A01 T03250181  RH  045%=      5-min Rain = 0
KGDS 061830Z 02008KT 33/18 A2996 RMK A01 T03270184  RH  045%=      5-min Rain = 0
KGDS 061835Z 02009G14KT 33/18 A2996 RMK A01 T03320182  RH  043%=      5-min Rain = 0
KGDS 061840Z 04012KT 33/18 A2995 RMK A01 T03260179  RH  044%=      5-min Rain = 0
KGDS 061845Z 04011KT 33/18 A2995 RMK A01 T03250184  RH  045%=      5-min Rain = 0
KGDS 061850Z 03009G15KT 33/18 A2995 RMK A01 T03250183  RH  045%=      5-min Rain = 0
KGDS 061855Z 03009KT 33/18 A2995 RMK A01 T03300181  RH  044%=      5-min Rain = 0
KGDS 061900Z 06011KT 33/18 A2995 RMK A01 T03270181  RH  044%=      5-min Rain = 0
KGDS 061905Z 06010G17KT 32/19 A2995 RMK A01 T03220188  RH  048%=      5-min Rain = 0
KGDS 061910Z 06011KT 32/19 A2995 RMK A01 T03160193  RH  051%=      5-min Rain = 0
KGDS 061915Z 07011KT 31/19 A2995 RMK A01 T03140192  RH  051%=      5-min Rain = 0
KGDS 061920Z 05009KT 32/19 A2995 RMK A01 T03160191  RH  050%=      5-min Rain = 0
KGDS 061925Z 04006KT 33/19 A2995 RMK A01 T03270189  RH  047%=      5-min Rain = 0
KGDS 061930Z 06009KT 33/19 A2995 RMK A01 T03300187  RH  045%=      5-min Rain = 0
KGDS 061935Z 08007G13KT 33/19 A2994 RMK A01 T03320187  RH  045%=      5-min Rain = 0
KGDS 061940Z 06007G13KT 33/19 A2994 RMK A01 T03340188  RH  045%=      5-min Rain = 0
KGDS 061945Z 08008G13KT 33/19 A2994 RMK A01 T03320185  RH  044%=      5-min Rain = 0
KGDS 061950Z 06010G15KT 33/18 A2994 RMK A01 T03310181  RH  043%=      5-min Rain = 0
KGDS 061955Z 04009G14KT 33/18 A2994 RMK A01 T03290180  RH  043%=      5-min Rain = 0
KGDS 062000Z 07009G14KT 33/18 A2994 RMK A01 T03260178  RH  044%=      5-min Rain = 0
KGDS 062005Z 08011G16KT 34/18 A2994 RMK A01 T03380179  RH  041%=      5-min Rain = 0
KGDS 062010Z 07008G14KT 34/18 A2994 RMK A01 T03350177  RH  041%=      5-min Rain = 0
KGDS 062015Z 09010KT 33/18 A2994 RMK A01 T03340177  RH  042%=      5-min Rain = 0
KGDS 062020Z 09011KT 34/18 A2994 RMK A01 T03360176  RH  041%=      5-min Rain = 0
KGDS 062025Z 08010KT 34/17 A2994 RMK A01 T03380172  RH  039%=      5-min Rain = 0
KGDS 062030Z 10007G15KT 34/18 A2993 RMK A01 T03380182  RH  042%=      5-min Rain = 0
KGDS 062035Z 10010G15KT 34/18 A2993 RMK A01 T03370183  RH  042%=      5-min Rain = 0
KGDS 062040Z 10007G12KT 33/18 A2993 RMK A01 T03290180  RH  043%=      5-min Rain = 0
KGDS 062045Z 08010G16KT 33/18 A2993 RMK A01 T03270184  RH  045%=      5-min Rain = 0
KGDS 062050Z 07009G17KT 33/19 A2993 RMK A01 T03250185  RH  046%=      5-min Rain = 0
KGDS 062055Z 09010G15KT 33/19 A2993 RMK A01 T03290185  RH  045%=      5-min Rain = 0
KGDS 062100Z 10010G15KT 33/19 A2993 RMK A01 T03340185  RH  044%=      5-min Rain = 0
KGDS 062105Z 08011G17KT 33/19 A2992 RMK A01 T03320185  RH  044%=      5-min Rain = 0
KGDS 062110Z 09009G15KT 34/19 A2992 RMK A01 T03350185  RH  043%=      5-min Rain = 0
KGDS 062115Z 08010G15KT 33/18 A2992 RMK A01 T03310184  RH  044%=      5-min Rain = 0
KGDS 062120Z 09009G14KT 33/19 A2992 RMK A01 T03290185  RH  045%=      5-min Rain = 0
KGDS 062125Z 07010KT 33/19 A2992 RMK A01 T03340185  RH  044%=      5-min Rain = 0
KGDS 062130Z 07008G13KT 34/18 A2992 RMK A01 T03350184  RH  043%=      5-min Rain = 0
KGDS 062135Z 06010G15KT 33/18 A2992 RMK A01 T03280182  RH  044%=      5-min Rain = 0
KGDS 062140Z 06010G15KT 33/18 A2992 RMK A01 T03340184  RH  043%=      5-min Rain = 0
KGDS 062145Z 11009G16KT 33/18 A2992 RMK A01 T03250184  RH  046%=      5-min Rain = 0
KGDS 062150Z 09010KT 33/19 A2992 RMK A01 T03340186  RH  044%=      5-min Rain = 0
KGDS 062155Z 08009G16KT 33/19 A2992 RMK A01 T03280187  RH  046%=      5-min Rain = 0
KGDS 062200Z 08013G18KT 33/19 A2992 RMK A01 T03320192  RH  046%=      5-min Rain = 0
KGDS 062205Z 07010G15KT 33/19 A2992 RMK A01 T03270192  RH  047%=      5-min Rain = 0
KGDS 062210Z 08011G17KT 33/19 A2992 RMK A01 T03340191  RH  045%=      5-min Rain = 0
KGDS 062215Z 07009G15KT 33/19 A2993 RMK A01 T03310189  RH  046%=      5-min Rain = 0
KGDS 062220Z 08013G18KT 33/19 A2993 RMK A01 T03280187  RH  046%=      5-min Rain = 0
KGDS 062225Z 10011G16KT 33/19 A2993 RMK A01 T03280186  RH  045%=      5-min Rain = 0
KGDS 062230Z 09012KT 32/18 A2993 RMK A01 T03230184  RH  046%=      5-min Rain = 0
KGDS 062235Z 08012KT 32/18 A2993 RMK A01 T03220182  RH  046%=      5-min Rain = 0
KGDS 062240Z 09011KT 33/18 A2993 RMK A01 T03330179  RH  042%=      5-min Rain = 0
KGDS 062245Z 10013KT 33/18 A2993 RMK A01 T03330175  RH  041%=      5-min Rain = 0
KGDS 062250Z 09012G18KT 33/18 A2993 RMK A01 T03330176  RH  041%=      5-min Rain = 0
KGDS 062255Z 10019G24KT 32/20 A2993 RMK A01 T03200203  RH  053%=      5-min Rain = 0
KGDS 062300Z 11017KT 31/20 A2993 RMK A01 T03130204  RH  056%=      5-min Rain = 0
KGDS 062305Z 11016KT 31/20 A2993 RMK A01 T03120202  RH  055%=      5-min Rain = 0
KGDS 062310Z 11016KT 31/20 A2992 RMK A01 T03120200  RH  055%=      5-min Rain = 0
KGDS 062315Z 10017G22KT 31/20 A2992 RMK A01 T03130201  RH  054%=      5-min Rain = 0
KGDS 062320Z 11014G19KT 31/20 A2992 RMK A01 T03120199  RH  054%=      5-min Rain = 0
KGDS 062325Z 11012KT 31/20 A2992 RMK A01 T03130197  RH  053%=      5-min Rain = 0
KGDS 062330Z 11012KT 31/20 A2992 RMK A01 T03120197  RH  053%=      5-min Rain = 0
KGDS 062335Z 11012KT 31/20 A2992 RMK A01 T03120196  RH  053%=      5-min Rain = 0
KGDS 062340Z 11011KT 31/20 A2992 RMK A01 T03100195  RH  053%=      5-min Rain = 0
KGDS 062345Z 11009KT 31/19 A2992 RMK A01 T03100194  RH  053%=      5-min Rain = 0
KGDS 062350Z 10008KT 31/19 A2991 RMK A01 T03110191  RH  052%=      5-min Rain = 0
KGDS 062355Z 09007KT 31/19 A2991 RMK A01 T03140191  RH  051%=      5-min Rain = 0
KGDS 070000Z 08008KT 31/19 A2991 RMK A01 T03140190  RH  051%=      5-min Rain = 0
KGDS 070005Z 09008KT 31/19 A2991 RMK A01 T03130191  RH  051%=      5-min Rain = 0
KGDS 070010Z 08007KT 31/19 A2991 RMK A01 T03120191  RH  051%=      5-min Rain = 0
KGDS 070015Z 08005KT 31/19 A2991 RMK A01 T03120191  RH  051%=      5-min Rain = 0
KGDS 070020Z 09007KT 31/19 A2991 RMK A01 T03120193  RH  052%=      5-min Rain = 0
KGDS 070025Z 10009KT 31/19 A2991 RMK A01 T03110192  RH  052%=      5-min Rain = 0
KGDS 070030Z 08009KT 31/19 A2992 RMK A01 T03080190  RH  052%=      5-min Rain = 0
KGDS 070035Z 09010KT 31/19 A2991 RMK A01 T03050188  RH  052%=      5-min Rain = 0
KGDS 070040Z 10011KT 30/19 A2991 RMK A01 T03010190  RH  055%=      5-min Rain = 0
KGDS 070045Z 11011KT 30/19 A2992 RMK A01 T02960194  RH  057%=      5-min Rain = 0
KGDS 070050Z 12010KT 30/19 A2992 RMK A01 T02950193  RH  057%=      5-min Rain = 0
KGDS 070055Z 11010KT 30/19 A2992 RMK A01 T02970193  RH  057%=      5-min Rain = 0
KGDS 070100Z 11009KT 30/19 A2992 RMK A01 T02980194  RH  057%=      5-min Rain = 0
KGDS 070105Z 11009KT 30/19 A2993 RMK A01 T02980194  RH  057%=      5-min Rain = 0
KGDS 070110Z 10009KT 30/19 A2993 RMK A01 T02960192  RH  057%=      5-min Rain = 0
KGDS 070115Z 11010KT 29/19 A2993 RMK A01 T02940192  RH  057%=      5-min Rain = 0
KGDS 070120Z 12009KT 29/19 A2993 RMK A01 T02930191  RH  057%=      5-min Rain = 0
KGDS 070125Z 11008KT 29/19 A2993 RMK A01 T02910194  RH  059%=      5-min Rain = 0
KGDS 070130Z 10007KT 29/20 A2993 RMK A01 T02890196  RH  061%=      5-min Rain = 0
KGDS 070135Z 10009KT 29/20 A2993 RMK A01 T02870197  RH  062%=      5-min Rain = 0
KGDS 070140Z 10008KT 29/20 A2993 RMK A01 T02850199  RH  063%=      5-min Rain = 0
KGDS 070145Z 11006KT 28/20 A2994 RMK A01 T02830200  RH  064%=      5-min Rain = 0
KGDS 070150Z 11006KT 28/20 A2994 RMK A01 T02810200  RH  065%=      5-min Rain = 0
KGDS 070155Z 12006KT 28/20 A2994 RMK A01 T02800199  RH  065%=      5-min Rain = 0
KGDS 070200Z 11005KT 28/20 A2994 RMK A01 T02780199  RH  066%=      5-min Rain = 0
KGDS 070205Z 10006KT 28/20 A2994 RMK A01 T02760199  RH  067%=      5-min Rain = 0
KGDS 070210Z 11005KT 27/20 A2994 RMK A01 T02740198  RH  067%=      5-min Rain = 0
KGDS 070215Z 11005KT 27/20 A2994 RMK A01 T02720198  RH  068%=      5-min Rain = 0
KGDS 070220Z 10005KT 27/20 A2995 RMK A01 T02710198  RH  068%=      5-min Rain = 0
KGDS 070225Z 10004KT 27/20 A2995 RMK A01 T02690198  RH  069%=      5-min Rain = 0
KGDS 070230Z 10005KT 27/20 A2995 RMK A01 T02670198  RH  070%=      5-min Rain = 0
KGDS 070235Z 10005KT 27/20 A2995 RMK A01 T02660198  RH  070%=      5-min Rain = 0
KGDS 070240Z 10006KT 26/20 A2995 RMK A01 T02640198  RH  071%=      5-min Rain = 0
KGDS 070245Z 09006KT 26/20 A2996 RMK A01 T02620199  RH  072%=      5-min Rain = 0
KGDS 070250Z 09006KT 26/20 A2996 RMK A01 T02640199  RH  072%=      5-min Rain = 0
KGDS 070255Z 10005KT 26/20 A2995 RMK A01 T02640198  RH  071%=      5-min Rain = 0
KGDS 070300Z 10005KT 26/20 A2996 RMK A01 T02630197  RH  071%=      5-min Rain = 0
KGDS 070305Z 11004KT 26/20 A2996 RMK A01 T02630197  RH  071%=      5-min Rain = 0
KGDS 070310Z 11004KT 26/20 A2996 RMK A01 T02630197  RH  071%=      5-min Rain = 0
KGDS 070315Z 10004KT 26/20 A2996 RMK A01 T02630197  RH  071%=      5-min Rain = 0
KGDS 070320Z 11004KT 26/20 A2996 RMK A01 T02610196  RH  071%=      5-min Rain = 0
KGDS 070325Z 10004KT 26/20 A2997 RMK A01 T02590196  RH  072%=      5-min Rain = 0
KGDS 070330Z 10004KT 26/20 A2997 RMK A01 T02590196  RH  072%=      5-min Rain = 0
KGDS 070335Z 09004KT 26/20 A2997 RMK A01 T02580197  RH  073%=      5-min Rain = 0
KGDS 070340Z 10005KT 26/20 A2997 RMK A01 T02570197  RH  074%=      5-min Rain = 0
KGDS 070345Z 10005KT 26/20 A2997 RMK A01 T02550196  RH  074%=      5-min Rain = 0
KGDS 070350Z 09005KT 25/20 A2997 RMK A01 T02540197  RH  075%=      5-min Rain = 0
KGDS 070355Z 09005KT 25/20 A2997 RMK A01 T02540195  RH  074%=      5-min Rain = 0
KGDS 070400Z 10006KT 25/19 A2997 RMK A01 T02540193  RH  073%=      5-min Rain = 0
KGDS 070405Z 11005KT 25/19 A2997 RMK A01 T02510193  RH  074%=      5-min Rain = 0
KGDS 070410Z 11005KT 25/20 A2997 RMK A01 T02500195  RH  076%=      5-min Rain = 0
KGDS 070415Z 11004KT 25/20 A2997 RMK A01 T02500196  RH  076%=      5-min Rain = 0
KGDS 070420Z 11004KT 25/20 A2997 RMK A01 T02500195  RH  076%=      5-min Rain = 0
KGDS 070425Z 11004KT 25/20 A2997 RMK A01 T02470195  RH  077%=      5-min Rain = 0
KGDS 070430Z 11004KT 25/20 A2997 RMK A01 T02470195  RH  077%=      5-min Rain = 0
KGDS 070435Z 10005KT 25/20 A2997 RMK A01 T02460195  RH  077%=      5-min Rain = 0
KGDS 070440Z 10004KT 24/20 A2997 RMK A01 T02440195  RH  078%=      5-min Rain = 0
KGDS 070445Z 10004KT 24/20 A2997 RMK A01 T02440196  RH  079%=      5-min Rain = 0
KGDS 070450Z 10003KT 24/20 A2997 RMK A01 T02440196  RH  079%=      5-min Rain = 0
KGDS 070455Z 10002KT 24/20 A2997 RMK A01 T02440197  RH  079%=      5-min Rain = 0

Page generated in 0.0093 seconds.